Nicht eingeloggt | Einloggen
Öffentliche Ansicht
Hier können Sie sich die Waage ansehen. Nutzen Sie auch die verschiedenen Auswertungsmöglichkeiten, die Ihnen zur Verfügung stehen. Sie können verschiedene Berichtarten auswählen und die Zeiträume entsprechend anpassen.
Waagenübersicht
Bienenstockwaage
Nr. 5514
Jürgen Binder
Standort: Schleswig Holstein, Itzehoe
Tracht:
Bemerkung:
Waagenauswahl

1. Waage auswählen:

Bienenstockwaage

2. Zeitraum wählen:




3. Datum bestimmen:

Diagramm
Anpassen
Neu laden
Durchgeführte Arbeiten, Korrekturen, Notizen
Beginn Ende Bemerkung
Keine Daten
-
-
Tabelle
Tag Gewicht Diff. min max Feuchte Regen Temp. 2
26.08.2017 30,52 kg -0,31 kg 9,7 °C 17,0 °C 26,9 °C 85,2 % 0,0 l 34,1 °C
27.08.2017 42,74 kg -0,77 kg 11,2 °C 15,9 °C 24,9 °C 86,4 % 0,0 l 33,9 °C
28.08.2017 41,98 kg -0,79 kg 9,5 °C 15,8 °C 24,6 °C 88,3 % 0,0 l 33,6 °C
29.08.2017 41,19 kg -0,65 kg 11,4 °C 19,0 °C 30,7 °C 81,5 % 0,0 l 33,3 °C
30.08.2017 40,54 kg -0,33 kg 15,6 °C 19,3 °C 23,0 °C 90,9 % 3,5 l 32,3 °C
31.08.2017 40,21 kg -0,38 kg 10,2 °C 15,5 °C 19,2 °C 99,0 % 6,0 l 32,5 °C
01.09.2017 39,83 kg -0,54 kg 9,1 °C 13,4 °C 20,6 °C 98,5 % 0,0 l 33,4 °C
02.09.2017 39,29 kg -0,57 kg 8,8 °C 13,6 °C 23,7 °C 91,7 % 1,0 l 33,5 °C
03.09.2017 38,72 kg -1,32 kg 6,3 °C 12,9 °C 23,2 °C 96,1 % 0,0 l 33,6 °C
04.09.2017 37,40 kg -1,05 kg 6,6 °C 12,8 °C 22,8 °C 91,7 % 0,0 l 33,5 °C
05.09.2017 36,34 kg -0,99 kg 7,7 °C 14,7 °C 24,1 °C 88,4 % 0,5 l 32,5 °C
06.09.2017 39,51 kg -1,62 kg 9,0 °C 14,2 °C 18,3 °C 96,8 % 28,0 l 31,6 °C
07.09.2017 37,89 kg -0,47 kg 3,3 °C 6,9 °C 27,2 °C 86,7 % 1,5 l 33,0 °C
08.09.2017 37,41 kg +0,15 kg 5,1 °C 8,3 °C 10,9 °C 89,8 % 33,0 l 33,2 °C
09.09.2017 37,57 kg -0,14 kg 10,9 °C 12,7 °C 19,1 °C 87,4 % 13,5 l 33,3 °C
10.09.2017 37,44 kg -0,27 kg 11,6 °C 14,6 °C 17,9 °C 89,0 % 0,0 l 33,4 °C
11.09.2017 37,17 kg -0,26 kg 15,0 °C 16,4 °C 19,3 °C 87,3 % 0,0 l 33,2 °C
12.09.2017 36,91 kg +0,03 kg 16,3 °C 17,4 °C 19,3 °C 86,0 % 5,0 l 33,2 °C
13.09.2017 36,95 kg -0,02 kg 14,3 °C 16,3 °C 18,8 °C 87,2 % 29,0 l 33,0 °C
14.09.2017 36,92 kg -0,06 kg 13,8 °C 15,3 °C 17,1 °C 86,5 % 1,0 l 33,1 °C
15.09.2017 36,87 kg -0,14 kg 13,6 °C 15,4 °C 18,5 °C 85,8 % 1,5 l 33,3 °C
16.09.2017 36,73 kg +0,01 kg 11,7 °C 13,2 °C 13,8 °C 86,7 % 2,0 l 33,1 °C
17.09.2017 36,73 kg +0,02 kg 10,4 °C 12,4 °C 15,5 °C 88,1 % 0,0 l 33,1 °C
18.09.2017 36,75 kg +0,04 kg 9,9 °C 12,2 °C 14,6 °C 87,5 % 0,0 l 33,0 °C
19.09.2017 36,79 kg +0,10 kg 9,8 °C 12,4 °C 16,1 °C 87,6 % 0,0 l 33,0 °C
20.09.2017 36,90 kg -0,15 kg 12,7 °C 14,3 °C 15,8 °C 90,3 % 11,5 l 33,1 °C
21.09.2017 36,74 kg +0,10 kg 13,2 °C 14,9 °C 17,6 °C 90,3 % 0,0 l 33,4 °C
22.09.2017 36,84 kg -0,62 kg 12,3 °C 14,2 °C 16,2 °C 88,8 % 0,0 l 31,7 °C
23.09.2017 51,45 kg -0,10 kg 12,2 °C 14,0 °C 16,9 °C 82,7 % 5625,0 l 29,2 °C
24.09.2017 51,35 kg -0,59 kg 12,8 °C 14,2 °C 15,7 °C 86,8 % 0,0 l 29,0 °C